Nefterudovoz-29m — UIMI — position and weather

sailwx.info

Track history (hours):
 
Tides and Currents Weather Stations Pressure Air Temp Water Temp Dewpoint Dewpoint Depression Visibility Wind Speed Wind Dir Waves Ship Positions

Nefterudovoz-29m

Last reported at 2016-Dec-06 07:33 UTC. Time now 2016-Dec-06 08:10 UTC.
Position N 45°10' E 036°32'.

Length 119 m; draft 3.8 m.

Type: Cargo ship. MMSI: 273345300.

Date/timePositionNaut miles runAvg speedWind from/ knotsBaromVisibWave heightAir tempDewpointWater temp
2016-Dec-06 07:33N 45°10' E 036°32'0 0.0
2016-Dec-06 06:33N 45°10' E 036°32'0 0.1
2016-Dec-06 05:21N 45°10' E 036°32'4 4.5
2016-Dec-06 04:28N 45°06' E 036°30'  
2016-Nov-30 08:14N 40°53' E 028°55'5 3.0
2016-Nov-30 06:32N 40°49' E 028°53'1 1.0
2016-Nov-30 05:31N 40°48' E 028°52'1 0.6
2016-Nov-30 04:20N 40°48' E 028°51'1 0.7
2016-Nov-30 03:28N 40°48' E 028°52'1 0.7
2016-Nov-30 02:19N 40°48' E 028°51'1 0.7
2016-Nov-30 01:07N 40°49' E 028°51'3 1.6
2016-Nov-29 23:06N 40°47' E 028°54'2 2.7
2016-Nov-29 22:32N 40°45' E 028°56'0 0.2
2016-Nov-29 21:28N 40°46' E 028°56'2 1.6
2016-Nov-29 20:29N 40°46' E 028°58'2 2.5
2016-Nov-29 19:31N 40°48' E 028°60'4 3.9
2016-Nov-29 18:30N 40°46' E 029°05'6 6.7
2016-Nov-29 17:33N 40°44' E 029°13'8 8.0
2016-Nov-29 16:32N 40°45' E 029°23'  
Track history (hours):
 
Tides and Currents Weather Stations Pressure Air Temp Water Temp Dewpoint Dewpoint Depression Visibility Wind Speed Wind Dir Waves Ship Positions

Nefterudovoz-29m

Last reported at 2016-Dec-06 07:33 UTC. Time now 2016-Dec-06 08:10 UTC.
Position N 45°10' E 036°32'.

Length 119 m; draft 3.8 m.

Type: Cargo ship. MMSI: 273345300.

Date/timePositionNaut miles runAvg speedWind from/ knotsBaromVisibWave heightAir tempDewpointWater temp
2016-Dec-06 07:33N 45°10' E 036°32'0 0.0
2016-Dec-06 06:33N 45°10' E 036°32'0 0.1
2016-Dec-06 05:21N 45°10' E 036°32'4 4.5
2016-Dec-06 04:28N 45°06' E 036°30'  
2016-Nov-30 08:14N 40°53' E 028°55'5 3.0
2016-Nov-30 06:32N 40°49' E 028°53'1 1.0
2016-Nov-30 05:31N 40°48' E 028°52'1 0.6
2016-Nov-30 04:20N 40°48' E 028°51'1 0.7
2016-Nov-30 03:28N 40°48' E 028°52'1 0.7
2016-Nov-30 02:19N 40°48' E 028°51'1 0.7
2016-Nov-30 01:07N 40°49' E 028°51'3 1.6
2016-Nov-29 23:06N 40°47' E 028°54'2 2.7
2016-Nov-29 22:32N 40°45' E 028°56'0 0.2
2016-Nov-29 21:28N 40°46' E 028°56'2 1.6
2016-Nov-29 20:29N 40°46' E 028°58'2 2.5
2016-Nov-29 19:31N 40°48' E 028°60'4 3.9
2016-Nov-29 18:30N 40°46' E 029°05'6 6.7
2016-Nov-29 17:33N 40°44' E 029°13'8 8.0
2016-Nov-29 16:32N 40°45' E 029°23'  

Dump ship's entire track history